createdAt,value
2018-09-05T00:00:11.211Z,15.10
2018-09-05T00:02:40.192Z,15.23
2018-09-05T00:05:09.464Z,14.17
2018-09-05T00:07:38.279Z,15.37
2018-09-05T00:10:07.073Z,13.73
2018-09-05T00:12:35.925Z,15.00
2018-09-05T00:15:04.804Z,14.70
2018-09-05T00:17:33.588Z,14.90
2018-09-05T00:20:02.377Z,16.23
2018-09-05T00:22:31.176Z,15.83
2018-09-05T00:24:59.944Z,16.63
2018-09-05T00:27:28.708Z,15.10
2018-09-05T00:29:57.524Z,14.93
2018-09-05T00:32:26.387Z,16.43
2018-09-05T00:34:55.211Z,15.30
2018-09-05T00:37:24.005Z,14.33
2018-09-05T00:39:52.788Z,15.23
2018-09-05T00:42:21.574Z,15.37
2018-09-05T00:44:50.366Z,14.80
2018-09-05T00:47:19.135Z,15.10
2018-09-05T00:49:47.897Z,15.23
2018-09-05T00:52:16.673Z,14.57
2018-09-05T00:54:45.529Z,14.77
2018-09-05T00:57:14.329Z,15.70
2018-09-05T00:59:43.084Z,14.90
2018-09-05T01:02:11.935Z,13.73
2018-09-05T01:04:40.718Z,16.13
2018-09-05T01:07:20.402Z,15.70
2018-09-05T01:09:49.160Z,15.33
2018-09-05T01:12:18.976Z,16.80
2018-09-05T01:14:47.809Z,15.80
2018-09-05T01:17:16.572Z,15.00
2018-09-05T01:19:45.372Z,17.30
2018-09-05T01:22:14.140Z,15.23
2018-09-05T01:24:42.997Z,15.43
2018-09-05T01:27:12.117Z,15.47
2018-09-05T01:29:42.113Z,16.90
2018-09-05T01:32:11.724Z,13.33
2018-09-05T01:34:41.337Z,14.90
2018-09-05T01:37:10.657Z,16.50
2018-09-05T01:39:39.469Z,15.57
2018-09-05T01:42:09.239Z,16.67
2018-09-05T01:44:38.100Z,16.00
2018-09-05T01:47:07.017Z,16.00
2018-09-05T01:49:35.848Z,16.80
2018-09-05T01:52:05.149Z,16.00
2018-09-05T01:54:34.419Z,16.17
2018-09-05T01:57:03.381Z,15.97
2018-09-05T01:59:32.339Z,16.33
2018-09-05T02:02:01.426Z,17.20
2018-09-05T02:04:30.578Z,16.57
2018-09-05T02:06:59.652Z,17.37
2018-09-05T02:09:28.796Z,16.70
2018-09-05T02:11:57.800Z,15.87
2018-09-05T02:14:26.816Z,15.23
2018-09-05T02:16:56.078Z,16.90
2018-09-05T02:19:25.332Z,17.40
2018-09-05T02:21:54.321Z,16.90
2018-09-05T02:24:23.254Z,17.70
2018-09-05T02:26:52.312Z,17.70
2018-09-05T02:29:21.039Z,18.27
2018-09-05T02:31:49.800Z,16.90
2018-09-05T02:34:18.612Z,17.17
2018-09-05T02:36:47.380Z,18.17
2018-09-05T02:39:16.156Z,17.63
2018-09-05T02:41:44.935Z,17.13
2018-09-05T02:44:20.362Z,17.73
2018-09-05T02:46:49.254Z,16.80
2018-09-05T02:49:18.089Z,19.90
2018-09-05T02:51:47.406Z,18.60
2018-09-05T02:54:16.247Z,17.47
2018-09-05T02:56:44.996Z,18.43
2018-09-05T02:59:13.759Z,19.80
2018-09-05T03:01:42.524Z,19.23
2018-09-05T03:04:11.272Z,18.20
2018-09-05T03:06:40.052Z,21.90
2018-09-05T03:09:09.451Z,19.37
2018-09-05T03:11:38.247Z,23.27
2018-09-05T03:14:07.128Z,29.50
2018-09-05T03:16:35.896Z,26.33
2018-09-05T03:19:04.697Z,21.43
2018-09-05T03:21:33.455Z,21.37
2018-09-05T03:24:02.265Z,19.73
2018-09-05T03:26:31.071Z,20.63
2018-09-05T03:28:59.834Z,20.07
2018-09-05T03:31:28.612Z,19.97
2018-09-05T03:33:57.368Z,19.63
2018-09-05T03:36:26.163Z,19.10
2018-09-05T03:38:54.904Z,18.63
2018-09-05T03:41:23.680Z,20.17
2018-09-05T03:43:52.441Z,19.00
2018-09-05T03:46:21.209Z,17.57
2018-09-05T03:48:49.996Z,18.40
2018-09-05T03:51:19.088Z,17.13
2018-09-05T03:53:49.581Z,18.30
2018-09-05T03:56:19.626Z,18.63
2018-09-05T03:58:50.228Z,18.90
2018-09-05T04:01:20.486Z,18.17
2018-09-05T04:03:50.883Z,19.23
2018-09-05T04:06:20.513Z,18.73
2018-09-05T04:08:52.510Z,19.87
2018-09-05T04:11:22.892Z,17.87
2018-09-05T04:13:52.717Z,17.57
2018-09-05T04:16:23.227Z,17.33
2018-09-05T04:18:52.786Z,17.87
2018-09-05T04:21:21.568Z,18.77
2018-09-05T04:23:50.341Z,18.37
2018-09-05T04:26:19.909Z,17.47
2018-09-05T04:28:48.679Z,19.23
2018-09-05T04:31:17.476Z,17.67
2018-09-05T04:33:46.517Z,17.77
2018-09-05T04:36:15.920Z,18.37
2018-09-05T04:38:44.773Z,16.67
2018-09-05T04:41:13.604Z,17.00
2018-09-05T04:43:43.754Z,16.13
2018-09-05T04:46:12.543Z,16.10
2018-09-05T04:48:41.452Z,17.17
2018-09-05T04:51:10.311Z,16.30
2018-09-05T04:53:39.162Z,17.13
2018-09-05T04:56:07.980Z,16.90
2018-09-05T04:58:37.262Z,15.93
2018-09-05T05:01:06.360Z,15.73
2018-09-05T05:03:35.747Z,17.73
2018-09-05T05:06:04.695Z,15.40
2018-09-05T05:08:33.543Z,16.50
2018-09-05T05:11:02.344Z,17.67
2018-09-05T05:13:31.159Z,15.50
2018-09-05T05:16:00.121Z,16.60
2018-09-05T05:18:28.923Z,16.73
2018-09-05T05:20:57.943Z,17.93
2018-09-05T05:23:27.016Z,17.37
2018-09-05T05:25:55.817Z,15.77
2018-09-05T05:28:24.865Z,16.93
2018-09-05T05:30:53.992Z,17.67
2018-09-05T05:33:22.803Z,16.53
2018-09-05T05:35:51.666Z,18.07
2018-09-05T05:38:20.469Z,15.93
2018-09-05T05:40:49.244Z,15.70
2018-09-05T05:43:18.065Z,17.27
2018-09-05T05:45:46.889Z,17.23
2018-09-05T05:48:15.691Z,19.63
2018-09-05T05:50:44.500Z,21.53
2018-09-05T05:53:13.257Z,19.67
2018-09-05T05:55:42.045Z,19.73
2018-09-05T05:58:10.806Z,17.77
2018-09-05T06:00:39.569Z,19.03
2018-09-05T06:03:08.366Z,19.13
2018-09-05T06:05:37.137Z,19.53
2018-09-05T06:08:05.928Z,21.67
2018-09-05T06:10:34.692Z,20.40
2018-09-05T06:13:03.474Z,19.20
2018-09-05T06:15:32.342Z,21.13
2018-09-05T06:18:01.113Z,18.37
2018-09-05T06:20:29.861Z,19.93
2018-09-05T06:22:58.646Z,20.97
2018-09-05T06:25:27.424Z,21.53
2018-09-05T06:27:56.250Z,21.53
2018-09-05T06:30:25.108Z,22.40
2018-09-05T06:32:53.910Z,23.53
2018-09-05T06:35:22.704Z,24.00
2018-09-05T06:37:51.483Z,24.70
2018-09-05T06:40:20.306Z,22.73
2018-09-05T06:42:49.090Z,23.23
2018-09-05T06:45:17.907Z,28.87
2018-09-05T06:47:46.676Z,25.07
2018-09-05T06:50:15.455Z,24.67
2018-09-05T06:52:44.250Z,21.07
2018-09-05T06:55:13.032Z,19.37
2018-09-05T06:57:41.849Z,16.73
2018-09-05T07:00:11.419Z,15.37
2018-09-05T07:02:40.269Z,16.23
2018-09-05T07:05:15.428Z,16.43
2018-09-05T07:07:44.271Z,17.43
2018-09-05T07:10:13.084Z,16.00
2018-09-05T07:12:41.858Z,13.63
2018-09-05T07:15:10.683Z,15.50
2018-09-05T07:17:39.496Z,13.97
2018-09-05T07:20:08.297Z,13.73
2018-09-05T07:22:37.097Z,13.30
2018-09-05T07:25:06.389Z,15.07
2018-09-05T07:27:35.236Z,14.63
2018-09-05T07:30:04.099Z,12.47
2018-09-05T07:32:32.939Z,13.80
2018-09-05T07:35:01.716Z,13.47
2018-09-05T07:37:30.497Z,13.97
2018-09-05T07:39:59.813Z,15.37
2018-09-05T07:42:28.585Z,15.37
2018-09-05T07:44:57.364Z,12.93
2018-09-05T07:47:26.216Z,14.00
2018-09-05T07:49:55.020Z,15.60
2018-09-05T07:52:23.797Z,14.30
2018-09-05T07:54:52.645Z,16.10
2018-09-05T07:57:21.633Z,15.60
2018-09-05T07:59:50.346Z,16.40
2018-09-05T08:02:19.140Z,15.50
2018-09-05T08:04:47.974Z,17.07
2018-09-05T08:07:16.769Z,17.80
2018-09-05T08:09:45.530Z,17.53
2018-09-05T08:12:47.692Z,16.50
2018-09-05T08:15:16.449Z,16.33
2018-09-05T08:17:45.308Z,18.10
2018-09-05T08:20:14.093Z,18.30
2018-09-05T08:22:42.928Z,17.90
2018-09-05T08:25:11.693Z,18.33
2018-09-05T08:27:40.452Z,17.90
2018-09-05T08:30:09.296Z,17.07
2018-09-05T08:32:38.046Z,17.17
2018-09-05T08:35:07.210Z,17.93
2018-09-05T08:37:36.133Z,16.43
2018-09-05T08:40:04.868Z,16.40
2018-09-05T08:42:35.118Z,17.37
2018-09-05T08:45:04.626Z,18.27
2018-09-05T08:47:33.325Z,16.97
2018-09-05T08:50:02.504Z,17.53
2018-09-05T08:52:31.389Z,16.63
2018-09-05T08:55:00.558Z,17.27
2018-09-05T08:57:29.338Z,16.20
2018-09-05T08:59:58.147Z,16.60
2018-09-05T09:02:26.948Z,17.07
2018-09-05T09:04:55.852Z,14.63
2018-09-05T09:07:24.604Z,15.03
2018-09-05T09:09:53.461Z,15.53
2018-09-05T09:12:22.349Z,14.10
2018-09-05T09:14:51.109Z,13.53
2018-09-05T09:17:19.881Z,15.53
2018-09-05T09:19:48.671Z,15.00
2018-09-05T09:22:17.450Z,13.73
2018-09-05T09:24:46.311Z,15.53
2018-09-05T09:27:15.168Z,15.20
2018-09-05T09:29:43.967Z,16.30
2018-09-05T09:32:12.738Z,15.90
2018-09-05T09:34:41.644Z,13.57
2018-09-05T09:37:10.440Z,15.23
2018-09-05T09:39:39.205Z,14.90
2018-09-05T09:42:08.441Z,14.87
2018-09-05T09:44:37.215Z,15.73
2018-09-05T09:47:06.039Z,15.40
2018-09-05T09:49:34.822Z,15.10
2018-09-05T09:52:08.942Z,16.00
2018-09-05T09:54:37.813Z,15.50
2018-09-05T09:57:06.613Z,15.97
2018-09-05T09:59:35.404Z,16.17
2018-09-05T10:02:09.384Z,14.90
2018-09-05T10:04:43.239Z,16.83
2018-09-05T10:07:17.156Z,13.53
2018-09-05T10:09:51.114Z,16.00
2018-09-05T10:12:25.001Z,14.17
2018-09-05T10:15:01.134Z,14.40
2018-09-05T10:17:31.164Z,15.10
2018-09-05T10:20:00.793Z,13.03
2018-09-05T10:22:30.128Z,15.33
2018-09-05T10:24:59.029Z,14.30
2018-09-05T10:27:28.506Z,13.77
2018-09-05T10:29:57.676Z,13.47
2018-09-05T10:32:26.710Z,14.83
2018-09-05T10:34:56.432Z,14.03
2018-09-05T10:37:25.396Z,13.23
2018-09-05T10:39:54.218Z,12.13
2018-09-05T10:42:22.990Z,13.13
2018-09-05T10:44:51.757Z,12.23
2018-09-05T10:47:20.533Z,11.53
2018-09-05T10:49:49.291Z,13.03
2018-09-05T10:52:18.087Z,12.57
2018-09-05T10:54:46.875Z,13.60
2018-09-05T10:57:15.680Z,13.33
2018-09-05T10:59:44.470Z,12.30
2018-09-05T11:02:13.298Z,12.13
2018-09-05T11:04:42.057Z,12.00
2018-09-05T11:07:10.830Z,11.03
2018-09-05T11:09:39.594Z,11.30
2018-09-05T11:12:08.365Z,11.67
2018-09-05T11:14:37.124Z,11.73
2018-09-05T11:17:05.946Z,12.20
2018-09-05T11:19:34.710Z,10.63
2018-09-05T11:22:03.511Z,11.93
2018-09-05T11:24:32.349Z,11.70
2018-09-05T11:27:01.149Z,10.47
2018-09-05T11:29:29.924Z,12.00
2018-09-05T11:31:58.732Z,12.90
2018-09-05T11:34:27.502Z,11.00
2018-09-05T11:36:56.333Z,12.03
2018-09-05T11:39:25.125Z,12.00
2018-09-05T11:41:53.913Z,12.23
2018-09-05T11:44:22.788Z,12.30
2018-09-05T11:46:51.567Z,12.03
2018-09-05T11:49:20.356Z,13.27
2018-09-05T11:51:49.130Z,12.70
2018-09-05T11:54:17.897Z,11.60
2018-09-05T11:56:46.669Z,11.97
2018-09-05T11:59:15.484Z,12.80
2018-09-05T12:01:44.313Z,10.97
2018-09-05T12:04:13.084Z,11.50
2018-09-05T12:06:41.936Z,11.37
2018-09-05T12:09:11.769Z,11.50
2018-09-05T12:11:40.610Z,13.03
2018-09-05T12:14:10.059Z,12.07
2018-09-05T12:16:39.119Z,12.40
2018-09-05T12:19:08.348Z,12.00
2018-09-05T12:21:37.126Z,11.83
2018-09-05T12:24:05.912Z,10.90
2018-09-05T12:26:35.029Z,10.70
2018-09-05T12:29:06.433Z,11.57
2018-09-05T12:31:35.235Z,11.17
2018-09-05T12:34:04.009Z,11.30
2018-09-05T12:36:32.777Z,10.27
2018-09-05T12:39:01.568Z,10.80
2018-09-05T12:41:30.438Z,11.33
2018-09-05T12:43:59.204Z,10.43
2018-09-05T12:46:27.972Z,10.37
2018-09-05T12:48:56.713Z,9.60
2018-09-05T12:51:25.553Z,10.50
2018-09-05T12:53:54.349Z,10.47
2018-09-05T12:56:23.142Z,11.40
2018-09-05T12:58:51.904Z,9.73
2018-09-05T13:01:20.749Z,10.37
2018-09-05T13:03:49.659Z,10.63
2018-09-05T13:06:18.469Z,10.57
2018-09-05T13:08:47.238Z,10.03
2018-09-05T13:11:16.079Z,11.40
2018-09-05T13:13:44.826Z,12.10
2018-09-05T13:16:13.592Z,11.77
2018-09-05T13:18:42.419Z,10.57
2018-09-05T13:21:11.202Z,10.60
2018-09-05T13:23:39.957Z,10.37
2018-09-05T13:26:08.739Z,10.37
2018-09-05T13:28:37.501Z,10.77
2018-09-05T13:31:06.322Z,9.97
2018-09-05T13:33:35.113Z,10.03
2018-09-05T13:36:04.108Z,9.67
2018-09-05T13:38:32.959Z,9.70
2018-09-05T13:41:01.721Z,10.50
2018-09-05T13:43:30.492Z,10.00
2018-09-05T13:45:59.257Z,9.93
2018-09-05T13:48:28.089Z,10.37
2018-09-05T13:50:56.851Z,11.20
2018-09-05T13:53:25.608Z,9.93
2018-09-05T13:55:54.393Z,10.73
2018-09-05T13:58:23.248Z,11.00
2018-09-05T14:00:52.073Z,11.73
2018-09-05T14:03:20.856Z,11.43
2018-09-05T14:05:49.624Z,12.10
2018-09-05T14:08:18.418Z,10.87
2018-09-05T14:10:47.219Z,11.13
2018-09-05T14:13:16.021Z,11.20
2018-09-05T14:15:44.795Z,10.43
2018-09-05T14:18:13.559Z,10.80
2018-09-05T14:20:42.464Z,11.93
2018-09-05T14:23:11.181Z,10.60
2018-09-05T14:25:39.943Z,11.17
2018-09-05T14:28:09.014Z,10.00
2018-09-05T14:30:37.897Z,11.07
2018-09-05T14:33:06.739Z,10.77
2018-09-05T14:35:35.493Z,10.57
2018-09-05T14:38:04.357Z,10.87
2018-09-05T14:40:33.107Z,11.03
2018-09-05T14:43:01.893Z,10.60
2018-09-05T14:45:30.668Z,11.47
2018-09-05T14:47:59.428Z,10.23
2018-09-05T14:50:28.218Z,10.63
2018-09-05T14:52:56.973Z,10.07
2018-09-05T14:55:25.729Z,10.87
2018-09-05T14:57:54.480Z,9.60
2018-09-05T15:00:23.266Z,11.13
2018-09-05T15:02:52.022Z,10.43
2018-09-05T15:05:20.806Z,11.07
2018-09-05T15:07:50.799Z,10.13
2018-09-05T15:10:19.597Z,10.70
2018-09-05T15:12:48.366Z,10.10
2018-09-05T15:15:17.695Z,9.50
2018-09-05T15:17:46.552Z,9.47
2018-09-05T15:20:15.269Z,9.93
2018-09-05T15:22:44.036Z,10.33
2018-09-05T15:25:12.793Z,9.93
2018-09-05T15:27:41.594Z,10.10
2018-09-05T15:30:10.652Z,10.40
2018-09-05T15:32:39.442Z,9.93
2018-09-05T15:35:08.244Z,10.23
2018-09-05T15:37:37.005Z,10.90
2018-09-05T15:40:06.145Z,10.03
2018-09-05T15:42:34.940Z,10.37
2018-09-05T15:45:03.721Z,11.57
2018-09-05T15:47:32.487Z,9.20
2018-09-05T15:50:01.287Z,11.17
2018-09-05T15:52:30.073Z,10.87
2018-09-05T15:54:58.821Z,10.33
2018-09-05T15:57:27.715Z,11.30
2018-09-05T15:59:56.630Z,11.00
2018-09-05T16:02:25.388Z,11.13
2018-09-05T16:04:54.133Z,10.33
2018-09-05T16:07:22.893Z,9.73
2018-09-05T16:09:51.665Z,9.77
2018-09-05T16:12:20.447Z,9.70
2018-09-05T16:14:49.213Z,9.83
2018-09-05T16:17:18.099Z,10.10
2018-09-05T16:19:46.849Z,10.30
2018-09-05T16:22:15.621Z,9.27
2018-09-05T16:24:44.381Z,9.03
2018-09-05T16:27:13.124Z,9.30
2018-09-05T16:29:41.928Z,9.00
2018-09-05T16:32:10.681Z,8.47
2018-09-05T16:34:39.464Z,7.97
2018-09-05T16:37:08.230Z,9.57
2018-09-05T16:39:37.272Z,8.63
2018-09-05T16:42:06.282Z,9.30
2018-09-05T16:44:35.256Z,8.90
2018-09-05T16:47:05.257Z,8.50
2018-09-05T16:49:34.199Z,8.17
2018-09-05T16:52:02.972Z,9.43
2018-09-05T16:54:31.927Z,8.40
2018-09-05T16:57:00.787Z,8.83
2018-09-05T16:59:29.625Z,9.20
2018-09-05T17:01:58.590Z,8.73
2018-09-05T17:04:27.407Z,8.53
2018-09-05T17:06:56.717Z,8.43
2018-09-05T17:09:25.888Z,7.97
2018-09-05T17:11:55.149Z,8.53
2018-09-05T17:14:23.936Z,9.30
2018-09-05T17:16:52.767Z,8.73
2018-09-05T17:19:21.526Z,8.73
2018-09-05T17:21:52.206Z,8.63
2018-09-05T17:24:21.058Z,8.77
2018-09-05T17:26:49.908Z,8.87
2018-09-05T17:29:18.852Z,8.13
2018-09-05T17:31:47.704Z,9.63
2018-09-05T17:34:16.532Z,9.57
2018-09-05T17:36:45.558Z,9.43
2018-09-05T17:39:14.344Z,8.70
2018-09-05T17:41:43.421Z,9.27
2018-09-05T17:44:12.604Z,10.30
2018-09-05T17:46:41.392Z,9.33
2018-09-05T17:49:10.619Z,9.03
2018-09-05T17:51:39.643Z,9.13
2018-09-05T17:54:08.427Z,9.70
2018-09-05T17:56:37.253Z,9.73
2018-09-05T17:59:06.421Z,10.13
2018-09-05T18:01:35.381Z,10.87
2018-09-05T18:04:10.601Z,9.60
2018-09-05T18:06:39.364Z,9.90
2018-09-05T18:09:09.749Z,9.67
2018-09-05T18:11:38.630Z,10.20
2018-09-05T18:14:07.497Z,9.67
2018-09-05T18:16:36.371Z,11.60
2018-09-05T18:19:05.207Z,9.87
2018-09-05T18:21:35.530Z,10.20
2018-09-05T18:24:04.637Z,10.50
2018-09-05T18:26:33.627Z,10.33
2018-09-05T18:29:02.640Z,10.33
2018-09-05T18:31:31.644Z,10.57
2018-09-05T18:34:00.413Z,10.93
2018-09-05T18:36:29.428Z,10.63
2018-09-05T18:38:58.209Z,9.77
2018-09-05T18:41:27.058Z,11.63
2018-09-05T18:43:55.846Z,11.27
2018-09-05T18:46:24.608Z,10.40
2018-09-05T18:48:53.396Z,10.87
2018-09-05T18:51:22.167Z,10.47
2018-09-05T18:53:50.961Z,10.93
2018-09-05T18:56:19.844Z,11.03
2018-09-05T18:58:48.699Z,10.77
2018-09-05T19:01:17.520Z,10.73
2018-09-05T19:03:46.389Z,11.87
2018-09-05T19:06:15.177Z,10.77
2018-09-05T19:08:44.845Z,10.73
2018-09-05T19:11:14.616Z,12.50
2018-09-05T19:13:43.382Z,11.07
2018-09-05T19:16:12.221Z,10.67
2018-09-05T19:18:41.132Z,11.17
2018-09-05T19:21:09.908Z,11.83
2018-09-05T19:23:38.708Z,11.90
2018-09-05T19:26:09.382Z,12.60
2018-09-05T19:28:38.537Z,12.13
2018-09-05T19:31:07.391Z,13.37
2018-09-05T19:33:36.456Z,13.30
2018-09-05T19:36:05.655Z,12.47
2018-09-05T19:38:34.438Z,12.07
2018-09-05T19:41:03.235Z,12.43
2018-09-05T19:43:32.055Z,13.27
2018-09-05T19:46:00.861Z,12.93
2018-09-05T19:48:29.629Z,14.03
2018-09-05T19:51:01.566Z,14.27
2018-09-05T19:53:30.471Z,13.07
2018-09-05T19:55:59.250Z,15.13
2018-09-05T19:58:28.033Z,13.13
2018-09-05T20:00:56.878Z,13.90
2018-09-05T20:03:26.609Z,12.53
2018-09-05T20:05:55.996Z,12.53
2018-09-05T20:08:25.059Z,14.23
2018-09-05T20:10:53.965Z,14.40
2018-09-05T20:13:22.798Z,12.13
2018-09-05T20:15:52.561Z,13.13
2018-09-05T20:18:21.763Z,14.80
2018-09-05T20:20:50.575Z,14.00
2018-09-05T20:23:23.722Z,13.20
2018-09-05T20:25:52.836Z,14.63
2018-09-05T20:28:21.708Z,14.07
2018-09-05T20:30:50.694Z,15.37
2018-09-05T20:33:19.500Z,16.17
2018-09-05T20:35:48.253Z,14.67
2018-09-05T20:38:17.051Z,15.67
2018-09-05T20:40:46.017Z,15.20
2018-09-05T20:43:15.409Z,15.07
2018-09-05T20:45:44.503Z,16.13
2018-09-05T20:48:13.324Z,15.07
2018-09-05T20:50:42.195Z,17.33
2018-09-05T20:53:11.142Z,14.60
2018-09-05T20:55:40.069Z,16.57
2018-09-05T20:58:10.709Z,15.27
2018-09-05T21:00:39.512Z,15.73
2018-09-05T21:03:08.300Z,14.77
2018-09-05T21:05:37.149Z,15.53
2018-09-05T21:08:06.320Z,17.80
2018-09-05T21:10:35.101Z,17.53
2018-09-05T21:13:05.666Z,16.63
2018-09-05T21:15:35.168Z,16.83
2018-09-05T21:18:04.212Z,16.50
2018-09-05T21:20:33.567Z,15.97
2018-09-05T21:23:02.770Z,16.87
2018-09-05T21:25:32.608Z,17.97
2018-09-05T21:28:01.602Z,17.10
2018-09-05T21:30:30.640Z,20.37
2018-09-05T21:32:59.755Z,17.90
2018-09-05T21:35:28.512Z,17.57
2018-09-05T21:37:57.518Z,19.67
2018-09-05T21:40:26.334Z,19.13
2018-09-05T21:42:55.088Z,19.20
2018-09-05T21:45:23.905Z,18.70
2018-09-05T21:47:52.701Z,20.20
2018-09-05T21:50:21.470Z,19.83
2018-09-05T21:52:50.335Z,23.23
2018-09-05T21:55:19.260Z,18.27
2018-09-05T21:57:48.141Z,18.77
2018-09-05T22:00:16.950Z,20.03
2018-09-05T22:02:45.728Z,20.33
2018-09-05T22:05:14.534Z,18.93
2018-09-05T22:07:43.341Z,19.83
2018-09-05T22:10:12.184Z,20.27
2018-09-05T22:12:40.948Z,20.67
2018-09-05T22:15:09.761Z,20.20
2018-09-05T22:17:39.196Z,21.57
2018-09-05T22:20:08.685Z,19.63
2018-09-05T22:22:37.591Z,19.17
2018-09-05T22:25:06.518Z,18.57
2018-09-05T22:27:35.295Z,20.60
2018-09-05T22:30:04.221Z,22.70
2018-09-05T22:32:33.064Z,18.20
2018-09-05T22:35:01.816Z,18.80
2018-09-05T22:37:30.705Z,18.53
2018-09-05T22:39:59.478Z,20.47
2018-09-05T22:42:30.373Z,18.53
2018-09-05T22:45:10.201Z,18.53
2018-09-05T22:47:54.201Z,18.37
2018-09-05T22:51:44.770Z,17.97
2018-09-05T22:56:38.485Z,18.37
2018-09-05T22:59:26.082Z,17.33
2018-09-05T23:02:07.822Z,21.53
2018-09-05T23:05:51.664Z,21.50
2018-09-05T23:08:37.740Z,21.93
2018-09-05T23:11:18.051Z,21.90
2018-09-05T23:13:58.248Z,20.57
2018-09-05T23:16:38.370Z,21.83
2018-09-05T23:19:44.471Z,20.20
2018-09-05T23:22:13.222Z,19.70
2018-09-05T23:24:41.997Z,19.27
2018-09-05T23:27:10.789Z,20.37
2018-09-05T23:29:39.602Z,18.80
2018-09-05T23:32:08.349Z,20.37
2018-09-05T23:34:37.144Z,19.80
2018-09-05T23:37:05.931Z,18.20
2018-09-05T23:39:34.690Z,18.30
2018-09-05T23:42:03.488Z,20.50
2018-09-05T23:44:32.265Z,19.73
2018-09-05T23:47:01.095Z,20.67
2018-09-05T23:49:29.973Z,20.10
2018-09-05T23:51:59.749Z,21.17
2018-09-05T23:54:28.702Z,19.70
2018-09-05T23:56:57.581Z,19.70
2018-09-05T23:59:26.365Z,21.90
